Time;durP1;ratioP1;P1;durP2;ratioP2;P2;SDS_P1;SDS_P2;PMS_P1;PMS_P2;Temp;Humidity;BMP_temperature;BMP_pressure;BME280_temperature;BME280_humidity;BME280_pressure;Samples;Min_cycle;Max_cycle;Signal;HPM_P1;HPM_P2
2021/03/25 00:00:22;;;;;;;78.47;43.70;;;7.60;90.60;;;;;;4950254;29;20039;-83
2021/03/25 00:02:48;;;;;;;81.15;44.60;;;7.60;90.60;;;;;;4940320;29;20079;-83
2021/03/25 00:05:14;;;;;;;73.85;40.35;;;7.60;90.60;;;;;;4927821;29;20079;-83
2021/03/25 00:07:40;;;;;;;75.90;41.70;;;7.60;90.60;;;;;;4956915;28;20479;-83
2021/03/25 00:10:09;;;;;;;84.95;42.78;;;7.60;90.60;;;;;;4956604;29;20133;-83
2021/03/25 00:12:35;;;;;;;84.45;45.80;;;7.50;90.60;;;;;;4957012;29;20389;-83
2021/03/25 00:15:01;;;;;;;89.57;46.13;;;7.50;90.60;;;;;;4957173;29;20035;-83
2021/03/25 00:17:27;;;;;;;82.70;44.35;;;7.50;90.70;;;;;;4945623;29;20023;-83
2021/03/25 00:19:52;;;;;;;93.38;48.03;;;7.50;90.70;;;;;;4932954;29;20042;-83
2021/03/25 00:22:18;;;;;;;78.60;42.75;;;7.50;90.80;;;;;;4926348;29;20110;-83
2021/03/25 00:24:44;;;;;;;85.68;45.10;;;7.50;90.80;;;;;;4939218;29;20377;-83
2021/03/25 00:27:09;;;;;;;87.55;46.72;;;7.50;90.80;;;;;;4939927;29;20122;-84
2021/03/25 00:29:35;;;;;;;87.20;47.08;;;7.50;90.80;;;;;;4940176;29;20098;-83
2021/03/25 00:32:00;;;;;;;81.85;45.25;;;7.50;90.90;;;;;;4952181;28;20110;-84
2021/03/25 00:34:26;;;;;;;81.85;45.75;;;7.50;90.90;;;;;;4940911;29;20122;-83
2021/03/25 00:36:51;;;;;;;83.13;43.65;;;7.50;91.00;;;;;;4943755;29;20423;-83
2021/03/25 00:39:17;;;;;;;79.30;43.50;;;7.50;91.00;;;;;;4952900;29;20046;-83
2021/03/25 00:41:43;;;;;;;86.70;46.63;;;7.50;91.00;;;;;;4939553;29;20020;-84
2021/03/25 00:44:13;;;;;;;82.95;47.28;;;7.40;91.00;;;;;;4950934;29;20468;-83
2021/03/25 00:46:39;;;;;;;85.70;45.17;;;7.40;91.00;;;;;;4940126;29;20035;-83
2021/03/25 00:49:05;;;;;;;80.78;45.80;;;7.40;91.10;;;;;;4955618;28;20019;-83
2021/03/25 00:51:31;;;;;;;78.30;44.15;;;7.40;91.10;;;;;;4940146;29;20391;-83
2021/03/25 00:53:57;;;;;;;81.85;44.78;;;7.30;91.10;;;;;;4957612;29;20028;-83
2021/03/25 00:56:23;;;;;;;80.78;45.22;;;7.30;91.20;;;;;;4954404;29;20118;-84
2021/03/25 00:58:48;;;;;;;82.07;46.20;;;7.30;91.30;;;;;;4939233;29;20114;-83
2021/03/25 01:01:14;;;;;;;81.20;45.70;;;7.30;91.40;;;;;;4955319;29;20071;-83
2021/03/25 01:03:40;;;;;;;85.68;45.05;;;7.30;91.40;;;;;;4955157;28;20518;-84
2021/03/25 01:06:06;;;;;;;80.80;44.90;;;7.30;91.40;;;;;;4937888;29;20031;-83
2021/03/25 01:08:33;;;;;;;79.78;44.88;;;7.30;91.40;;;;;;4939312;29;20027;-84
2021/03/25 01:11:13;;;;;;;81.88;45.47;;;7.30;91.50;;;;;;4955805;29;20505;-84
2021/03/25 01:14:07;;;;;;;87.65;46.50;;;7.40;91.50;;;;;;4939639;29;20062;-84
2021/03/25 01:16:36;;;;;;;80.18;45.30;;;7.40;91.50;;;;;;4922334;29;20165;-84
2021/03/25 01:19:09;;;;;;;75.80;42.58;;;7.40;91.50;;;;;;4939150;29;20031;-84
2021/03/25 01:21:36;;;;;;;74.78;41.80;;;7.40;91.50;;;;;;4926079;28;20448;-84
2021/03/25 01:24:01;;;;;;;74.32;42.92;;;7.40;91.40;;;;;;4951783;29;20036;-83
2021/03/25 01:26:27;;;;;;;82.10;45.25;;;7.30;91.40;;;;;;4950779;29;20035;-84
2021/03/25 01:28:53;;;;;;;75.38;44.65;;;7.30;91.40;;;;;;4948946;29;20027;-84
2021/03/25 01:31:18;;;;;;;81.82;43.33;;;7.30;91.50;;;;;;4932742;29;20034;-84
2021/03/25 01:33:45;;;;;;;81.75;45.63;;;7.30;91.40;;;;;;4951519;29;20031;-84
2021/03/25 01:36:10;;;;;;;85.63;46.97;;;7.30;91.50;;;;;;4938895;29;20031;-84
2021/03/25 01:38:36;;;;;;;89.53;48.78;;;7.30;91.40;;;;;;4938626;29;20396;-84
2021/03/25 01:41:03;;;;;;;85.45;47.40;;;7.30;91.70;;;;;;4953919;29;20391;-84
2021/03/25 01:43:40;;;;;;;89.13;48.85;;;7.30;91.40;;;;;;4954128;29;20035;-84
2021/03/25 01:46:15;;;;;;;90.28;49.10;;;7.30;91.40;;;;;;4939032;29;20031;-84
2021/03/25 01:48:43;;;;;;;82.70;46.58;;;7.40;91.40;;;;;;4937192;29;20027;-83
2021/03/25 01:51:35;;;;;;;82.32;44.97;;;7.40;91.40;;;;;;4931593;29;20031;-84
2021/03/25 01:54:32;;;;;;;83.03;46.53;;;7.40;91.40;;;;;;4938575;29;20031;-84
2021/03/25 01:57:30;;;;;;;81.75;45.72;;;7.40;91.40;;;;;;4939120;29;20027;-84
2021/03/25 02:00:09;;;;;;;84.15;45.60;;;7.40;91.40;;;;;;4936550;29;20046;-84
2021/03/25 02:02:34;;;;;;;76.40;44.10;;;7.30;91.40;;;;;;4934492;29;20114;-84
2021/03/25 02:05:43;;;;;;;88.88;46.63;;;7.30;91.50;;;;;;4956012;29;20070;-83
2021/03/25 02:08:27;;;;;;;86.82;46.90;;;7.30;91.70;;;;;;4918556;29;20110;-84
2021/03/25 02:11:10;;;;;;;87.72;46.05;;;7.30;91.70;;;;;;4950740;29;20031;-84
2021/03/25 02:14:06;;;;;;;97.78;50.38;;;7.30;91.80;;;;;;4938433;29;20031;-84
2021/03/25 02:16:57;;;;;;;98.80;51.97;;;7.40;91.80;;;;;;4955619;29;20051;-83
2021/03/25 02:19:48;;;;;;;91.88;48.80;;;7.40;91.70;;;;;;4934329;29;20039;-84
2021/03/25 02:22:26;;;;;;;91.63;48.40;;;7.50;91.70;;;;;;4912454;29;20039;-84
2021/03/25 02:25:02;;;;;;;95.85;51.88;;;7.50;91.70;;;;;;4950008;29;20023;-84
2021/03/25 02:27:47;;;;;;;96.35;50.60;;;7.50;91.70;;;;;;4948099;28;20657;-84
2021/03/25 02:30:21;;;;;;;84.82;46.85;;;7.50;91.80;;;;;;4954156;29;20031;-84
2021/03/25 02:32:52;;;;;;;96.93;51.55;;;7.60;91.80;;;;;;4954599;29;20078;-84
2021/03/25 02:35:32;;;;;;;96.93;53.20;;;7.60;91.80;;;;;;4955370;29;20034;-84
2021/03/25 02:38:09;;;;;;;90.18;50.38;;;7.60;91.70;;;;;;4937880;29;20030;-84
2021/03/25 02:40:40;;;;;;;94.38;52.47;;;7.60;91.70;;;;;;4920725;29;20082;-84
2021/03/25 02:43:07;;;;;;;101.63;52.50;;;7.70;91.70;;;;;;4934151;29;20051;-84
2021/03/25 02:45:39;;;;;;;95.22;51.20;;;7.70;91.60;;;;;;4950769;29;20042;-84
2021/03/25 02:48:28;;;;;;;101.03;52.90;;;7.60;91.60;;;;;;4954922;29;20038;-84
2021/03/25 02:51:03;;;;;;;96.78;51.53;;;7.60;91.60;;;;;;4931746;29;20634;-84
2021/03/25 02:53:34;;;;;;;94.10;51.97;;;7.70;91.60;;;;;;4930232;29;20411;-84
2021/03/25 02:56:07;;;;;;;104.28;52.20;;;7.70;91.60;;;;;;4937416;29;20027;-84
2021/03/25 02:58:36;;;;;;;89.43;50.72;;;7.70;91.50;;;;;;4937863;29;20027;-84
2021/03/25 03:01:05;;;;;;;93.10;52.05;;;7.70;91.50;;;;;;4943130;29;20036;-84
2021/03/25 03:03:41;;;;;;;97.45;52.55;;;7.70;91.80;;;;;;4937803;29;20095;-84
2021/03/25 03:06:24;;;;;;;96.55;50.75;;;7.70;91.50;;;;;;4945332;29;20047;-84
2021/03/25 03:08:51;;;;;;;91.68;50.15;;;7.80;91.50;;;;;;4953753;29;20395;-83
2021/03/25 03:11:33;;;;;;;85.75;49.05;;;7.80;91.40;;;;;;4933634;29;20081;-84
2021/03/25 03:14:03;;;;;;;100.47;52.10;;;7.80;91.40;;;;;;4937678;29;20027;-84
2021/03/25 03:16:53;;;;;;;85.80;50.33;;;7.70;91.30;;;;;;4940807;29;20058;-84
2021/03/25 03:19:41;;;;;;;95.38;50.63;;;7.80;91.30;;;;;;4936976;29;20042;-83
2021/03/25 03:22:08;;;;;;;88.55;51.15;;;7.70;91.30;;;;;;4934146;29;20471;-84
2021/03/25 03:24:35;;;;;;;100.95;54.00;;;7.70;91.30;;;;;;4952439;29;20027;-84
2021/03/25 03:27:16;;;;;;;102.35;55.03;;;7.80;91.30;;;;;;4954007;28;20028;-83
2021/03/25 03:29:44;;;;;;;86.18;48.97;;;7.80;91.40;;;;;;4928751;29;20024;-84
2021/03/25 03:32:25;;;;;;;88.93;50.22;;;7.70;91.30;;;;;;4954617;29;20023;-84
2021/03/25 03:34:57;;;;;;;90.78;50.05;;;7.80;91.30;;;;;;4937403;29;20511;-84
2021/03/25 03:37:35;;;;;;;93.95;50.88;;;7.80;91.30;;;;;;4938055;29;20098;-84
2021/03/25 03:40:05;;;;;;;90.38;49.42;;;7.80;91.30;;;;;;4934645;29;20039;-84
2021/03/25 03:42:31;;;;;;;100.85;54.40;;;7.70;91.40;;;;;;4950044;28;20031;-84
2021/03/25 03:44:59;;;;;;;101.63;53.75;;;7.70;91.40;;;;;;4958042;28;20033;-84
2021/03/25 03:47:28;;;;;;;97.55;54.17;;;7.70;91.50;;;;;;4958573;29;21394;-84
2021/03/25 03:50:08;;;;;;;104.43;54.05;;;7.70;91.50;;;;;;4939699;29;20023;-84
2021/03/25 03:52:37;;;;;;;101.72;53.30;;;7.70;91.40;;;;;;4957315;29;20430;-83
2021/03/25 03:55:07;;;;;;;101.45;54.00;;;7.70;91.40;;;;;;4958074;29;20070;-83
2021/03/25 03:57:43;;;;;;;91.35;50.25;;;7.70;91.50;;;;;;4958609;29;20043;-83
2021/03/25 04:00:22;;;;;;;94.38;51.95;;;7.70;91.40;;;;;;4949737;29;20039;-84
2021/03/25 04:03:12;;;;;;;90.45;50.65;;;7.70;91.40;;;;;;4943529;29;20110;-84
2021/03/25 04:05:42;;;;;;;105.95;54.42;;;7.60;91.30;;;;;;4958328;29;20495;-84
2021/03/25 04:08:33;;;;;;;100.00;54.38;;;7.50;91.30;;;;;;4939756;29;20784;-84
2021/03/25 04:11:07;;;;;;;90.93;51.28;;;7.40;91.30;;;;;;4949048;29;20024;-83
2021/03/25 04:13:39;;;;;;;95.03;51.22;;;7.30;91.40;;;;;;4939997;29;20055;-85
2021/03/25 04:16:06;;;;;;;95.35;51.38;;;7.20;91.60;;;;;;4936317;29;20035;-85
2021/03/25 04:18:48;;;;;;;96.60;52.97;;;7.20;91.70;;;;;;4940614;29;20537;-84
2021/03/25 04:21:20;;;;;;;;;;;7.20;91.80;;;;;;4957668;29;20028;-84
2021/03/25 04:23:48;;;;;;;101.57;50.13;;;7.20;91.70;;;;;;4948628;29;19910;-84
2021/03/25 04:26:28;;;;;;;93.95;52.33;;;7.20;91.70;;;;;;4942816;29;20114;-84
2021/03/25 04:29:06;;;;;;;95.30;50.38;;;7.30;91.70;;;;;;4934166;29;20024;-84
2021/03/25 04:31:32;;;;;;;100.65;52.20;;;7.30;91.70;;;;;;4934004;29;20042;-84
2021/03/25 04:34:00;;;;;;;102.88;54.60;;;7.30;91.70;;;;;;4940906;29;20070;-84
2021/03/25 04:36:29;;;;;;;94.03;52.20;;;7.30;91.70;;;;;;4937953;29;20093;-84
2021/03/25 04:38:55;;;;;;;99.75;52.10;;;7.40;91.70;;;;;;4954976;29;20035;-84
2021/03/25 04:41:22;;;;;;;97.30;52.53;;;7.40;91.70;;;;;;4938155;29;20122;-84
2021/03/25 04:43:48;;;;;;;95.63;50.05;;;7.40;91.70;;;;;;4939507;29;20035;-84
2021/03/25 04:47:04;;;;;;;90.93;52.05;;;7.40;91.70;;;;;;4945070;29;20038;-84
2021/03/25 04:49:43;;;;;;;86.50;50.03;;;7.40;91.60;;;;;;4921922;29;20412;-84
2021/03/25 04:52:20;;;;;;;93.32;49.83;;;7.40;91.60;;;;;;4957006;28;20030;-84
2021/03/25 04:54:46;;;;;;;90.53;49.97;;;7.40;91.60;;;;;;4939880;29;20023;-84
2021/03/25 04:57:35;;;;;;;93.15;49.70;;;7.30;91.60;;;;;;4957033;29;20497;-84
2021/03/25 05:00:14;;;;;;;87.78;48.88;;;7.30;91.70;;;;;;4950262;29;20042;-84
2021/03/25 05:02:40;;;;;;;92.07;50.70;;;7.20;91.70;;;;;;4940877;29;20090;-84
2021/03/25 05:05:06;;;;;;;90.03;48.30;;;7.30;91.80;;;;;;4956138;28;20039;-84
2021/03/25 05:07:37;;;;;;;94.18;52.33;;;7.30;92.20;;;;;;4952605;29;20019;-84
2021/03/25 05:10:15;;;;;;;90.13;49.65;;;7.20;91.90;;;;;;4951165;29;20028;-85
2021/03/25 05:12:40;;;;;;;100.53;52.17;;;7.20;91.90;;;;;;4945113;28;20039;-85
2021/03/25 05:15:14;;;;;;;96.10;51.05;;;7.10;91.90;;;;;;4935052;29;20475;-85
2021/03/25 05:17:54;;;;;;;92.90;48.67;;;7.10;91.90;;;;;;4932368;29;20091;-84
2021/03/25 05:20:33;;;;;;;95.53;50.28;;;7.10;92.00;;;;;;4950812;29;20102;-84
2021/03/25 05:23:17;;;;;;;98.80;50.03;;;7.00;92.00;;;;;;4954529;28;20034;-84
2021/03/25 05:25:49;;;;;;;91.85;49.08;;;7.00;92.00;;;;;;4938443;29;20032;-85
2021/03/25 05:28:32;;;;;;;94.25;49.88;;;6.90;92.00;;;;;;4935453;29;20160;-85
2021/03/25 05:30:59;;;;;;;97.97;50.17;;;6.80;92.00;;;;;;4949823;29;20035;-85
2021/03/25 05:33:28;;;;;;;100.00;49.85;;;6.80;92.10;;;;;;4941070;29;20042;-85
2021/03/25 05:36:08;;;;;;;95.45;48.70;;;6.70;92.20;;;;;;4939761;29;20119;-84
2021/03/25 05:38:34;;;;;;;103.80;52.10;;;6.60;92.20;;;;;;4956275;29;20027;-85
2021/03/25 05:41:31;;;;;;;95.10;49.17;;;6.50;92.30;;;;;;4951653;29;20110;-84
2021/03/25 05:44:12;;;;;;;96.72;48.95;;;6.40;92.30;;;;;;4914505;29;20035;-85
2021/03/25 05:46:45;;;;;;;85.70;46.78;;;6.30;92.40;;;;;;4933848;29;20216;-85
2021/03/25 05:49:37;;;;;;;96.65;47.97;;;6.20;92.40;;;;;;4951261;29;20027;-85
2021/03/25 05:52:05;;;;;;;97.05;50.15;;;6.20;92.40;;;;;;4951134;29;20082;-85
2021/03/25 05:55:08;;;;;;;97.57;49.05;;;6.10;92.50;;;;;;4954855;28;20023;-85
2021/03/25 05:57:52;;;;;;;85.38;45.70;;;6.10;92.60;;;;;;4955235;29;20034;-85
2021/03/25 06:00:38;;;;;;;97.78;49.13;;;6.00;92.50;;;;;;4935275;29;20042;-85
2021/03/25 06:03:10;;;;;;;97.72;48.42;;;5.90;92.60;;;;;;4955390;28;20039;-85
2021/03/25 06:05:36;;;;;;;92.00;48.28;;;5.90;92.80;;;;;;4938308;29;20031;-86
2021/03/25 06:08:36;;;;;;;94.63;48.40;;;5.80;92.80;;;;;;4955678;29;20031;-84
2021/03/25 06:11:05;;;;;;;100.57;50.22;;;5.90;92.90;;;;;;4934328;29;20063;-85
2021/03/25 06:13:41;;;;;;;101.78;48.95;;;5.90;93.00;;;;;;4935622;29;20106;-84
2021/03/25 06:16:26;;;;;;;108.25;53.10;;;5.90;93.10;;;;;;4932132;29;20027;-84
2021/03/25 06:19:38;;;;;;;101.45;52.35;;;6.00;93.10;;;;;;4927018;29;20028;-84
2021/03/25 06:22:29;;;;;;;101.80;50.47;;;6.10;93.10;;;;;;4945415;29;20133;-83
2021/03/25 06:24:57;;;;;;;100.60;51.65;;;6.10;93.10;;;;;;4938813;29;20035;-83
2021/03/25 06:27:47;;;;;;;105.85;52.42;;;6.20;93.10;;;;;;4938312;29;20031;-84
2021/03/25 06:30:20;;;;;;;102.15;51.97;;;6.20;93.10;;;;;;4938284;29;20036;-84
2021/03/25 06:32:49;;;;;;;;;;;6.30;93.00;;;;;;4939278;29;20078;-84
2021/03/25 06:35:25;;;;;;;102.10;50.90;;;6.30;92.90;;;;;;4956012;29;19913;-84
2021/03/25 06:38:02;;;;;;;103.75;51.53;;;6.30;93.00;;;;;;4938303;29;20074;-84
2021/03/25 06:40:36;;;;;;;108.13;53.78;;;6.30;93.00;;;;;;4951609;29;20055;-84
2021/03/25 06:43:25;;;;;;;113.40;58.08;;;6.30;93.00;;;;;;4953974;28;20535;-84
2021/03/25 06:46:08;;;;;;;111.18;55.90;;;6.40;93.10;;;;;;4935442;29;20024;-84
2021/03/25 06:48:42;;;;;;;120.53;58.53;;;6.40;93.10;;;;;;4936204;29;20035;-84
2021/03/25 06:51:29;;;;;;;112.40;56.38;;;6.40;93.10;;;;;;4949617;29;20058;-85
2021/03/25 06:54:11;;;;;;;120.25;59.33;;;6.50;93.10;;;;;;4948109;29;20392;-85
2021/03/25 06:56:52;;;;;;;101.75;52.92;;;6.50;93.10;;;;;;4954199;29;20491;-85
2021/03/25 06:59:29;;;;;;;98.28;52.50;;;6.50;93.10;;;;;;4953454;29;20079;-85
2021/03/25 07:02:08;;;;;;;110.82;57.08;;;6.60;93.20;;;;;;4937911;28;20491;-84
2021/03/25 07:04:40;;;;;;;107.55;56.42;;;6.70;93.30;;;;;;4956028;29;20043;-84
2021/03/25 07:07:10;;;;;;;116.40;59.07;;;6.80;93.20;;;;;;4937990;29;20640;-85
2021/03/25 07:09:37;;;;;;;110.60;54.60;;;6.80;93.10;;;;;;4954301;29;20027;-85
2021/03/25 07:12:06;;;;;;;109.38;57.35;;;6.90;93.10;;;;;;4956649;29;20040;-85
2021/03/25 07:14:40;;;;;;;107.80;58.40;;;7.00;93.10;;;;;;4941207;29;20032;-85
2021/03/25 07:17:09;;;;;;;102.30;54.45;;;7.00;93.00;;;;;;4944178;29;20475;-85
2021/03/25 07:19:37;;;;;;;112.20;55.75;;;7.00;93.00;;;;;;4960067;29;20034;-85
2021/03/25 07:22:20;;;;;;;106.70;56.95;;;7.10;93.00;;;;;;4960428;29;20020;-85
2021/03/25 07:24:46;;;;;;;96.82;54.83;;;7.20;93.00;;;;;;4961323;29;20030;-85
2021/03/25 07:27:16;;;;;;;111.93;55.63;;;7.30;93.00;;;;;;4960897;29;20027;-85
2021/03/25 07:29:59;;;;;;;99.82;54.88;;;7.40;92.90;;;;;;4943887;29;20024;-85
2021/03/25 07:32:41;;;;;;;104.03;57.22;;;7.50;92.90;;;;;;4960582;29;20019;-85
2021/03/25 07:35:14;;;;;;;106.03;54.17;;;7.70;92.80;;;;;;4943257;29;20027;-85
2021/03/25 07:37:42;;;;;;;99.63;54.05;;;7.80;92.70;;;;;;4960546;29;20067;-85
2021/03/25 07:40:24;;;;;;;95.28;54.85;;;7.90;92.50;;;;;;4941121;29;20125;-86
2021/03/25 07:42:50;;;;;;;100.93;54.28;;;8.10;92.50;;;;;;4941214;29;20434;-84
2021/03/25 07:45:23;;;;;;;100.40;54.97;;;8.20;92.40;;;;;;4940500;29;20035;-84
2021/03/25 07:47:50;;;;;;;105.15;55.60;;;8.30;92.30;;;;;;4950968;29;20024;-84
2021/03/25 07:50:35;;;;;;;95.00;54.75;;;8.40;92.20;;;;;;4960187;29;20499;-85
2021/03/25 07:53:29;;;;;;;105.38;56.25;;;8.50;92.10;;;;;;4960340;29;20031;-85
2021/03/25 07:56:15;;;;;;;101.75;55.20;;;8.50;92.00;;;;;;4956239;29;20097;-85
2021/03/25 07:58:46;;;;;;;94.70;52.25;;;8.60;91.90;;;;;;4958579;29;20388;-85
2021/03/25 08:01:20;;;;;;;98.95;55.25;;;8.70;92.00;;;;;;4942405;29;20407;-85
2021/03/25 08:03:54;;;;;;;94.18;51.20;;;8.80;91.90;;;;;;4959503;28;20122;-85
2021/03/25 08:06:40;;;;;;;96.07;53.70;;;9.00;91.80;;;;;;4943089;29;20034;-84
2021/03/25 08:09:12;;;;;;;82.47;47.13;;;9.10;91.70;;;;;;4959981;29;20411;-85
2021/03/25 08:11:58;;;;;;;90.70;51.72;;;9.20;91.60;;;;;;4942884;29;20518;-84
2021/03/25 08:14:29;;;;;;;91.32;51.33;;;9.40;91.50;;;;;;4942758;29;20070;-85
2021/03/25 08:17:00;;;;;;;81.35;46.83;;;9.60;91.50;;;;;;4927789;29;20024;-84
2021/03/25 08:19:38;;;;;;;80.72;46.83;;;9.80;91.60;;;;;;4942559;29;20039;-85
2021/03/25 08:22:29;;;;;;;83.47;47.47;;;10.00;91.00;;;;;;4942227;29;20171;-84
2021/03/25 08:24:57;;;;;;;81.57;45.42;;;10.00;90.40;;;;;;4940587;29;20019;-84
2021/03/25 08:28:11;;;;;;;85.75;47.15;;;10.00;90.50;;;;;;4943291;29;20024;-84
2021/03/25 08:30:48;;;;;;;;;;;10.20;90.40;;;;;;4942752;29;20071;-84
2021/03/25 08:33:42;;;;;;;79.90;43.97;;;10.20;90.50;;;;;;4959051;29;20282;-84
2021/03/25 08:36:42;;;;;;;78.00;45.28;;;10.30;90.30;;;;;;4958932;29;20027;-84
2021/03/25 08:39:29;;;;;;;82.05;46.08;;;10.40;90.00;;;;;;4941889;29;20507;-85
2021/03/25 08:42:26;;;;;;;74.60;42.67;;;10.50;90.00;;;;;;4942340;29;20106;-84
2021/03/25 08:45:19;;;;;;;69.68;41.92;;;10.60;90.00;;;;;;4959703;29;20038;-84
2021/03/25 08:48:20;;;;;;;66.97;40.17;;;10.80;89.70;;;;;;4956497;28;20030;-85
2021/03/25 08:51:05;;;;;;;69.13;39.25;;;10.80;89.00;;;;;;4930729;29;20035;-85
2021/03/25 08:53:39;;;;;;;73.32;42.35;;;10.90;88.50;;;;;;4940213;29;20027;-85
2021/03/25 08:56:14;;;;;;;72.07;41.80;;;10.90;88.10;;;;;;4938801;29;20058;-85
2021/03/25 08:58:41;;;;;;;69.70;38.13;;;10.90;88.20;;;;;;4954330;28;20479;-85
2021/03/25 09:01:15;;;;;;;73.75;38.95;;;11.00;87.70;;;;;;4929883;29;20051;-84
2021/03/25 09:03:56;;;;;;;69.15;38.65;;;11.00;87.60;;;;;;4941624;29;20043;-85
2021/03/25 09:06:26;;;;;;;63.42;36.13;;;11.20;87.50;;;;;;4924530;29;20055;-85
2021/03/25 09:08:59;;;;;;;61.88;35.53;;;11.40;87.60;;;;;;4941397;29;20032;-84
2021/03/25 09:11:25;;;;;;;51.00;32.05;;;11.60;87.00;;;;;;4933398;29;20035;-84
2021/03/25 09:13:56;;;;;;;54.65;30.33;;;11.80;86.50;;;;;;4940759;29;20034;-85
2021/03/25 09:16:27;;;;;;;57.72;31.38;;;12.00;85.70;;;;;;4956463;29;20042;-85
2021/03/25 09:18:54;;;;;;;57.55;33.28;;;12.30;84.70;;;;;;4967598;28;20166;-85
2021/03/25 09:21:23;;;;;;;60.03;33.67;;;12.50;83.60;;;;;;4957656;28;20035;-84
2021/03/25 09:24:01;;;;;;;44.65;29.98;;;12.70;82.80;;;;;;4957022;29;20038;-85
2021/03/25 09:26:27;;;;;;;46.72;30.05;;;12.80;82.40;;;;;;4955804;29;20051;-85
2021/03/25 09:29:06;;;;;;;48.55;29.45;;;12.90;81.90;;;;;;4956300;29;20543;-84
2021/03/25 09:31:40;;;;;;;45.30;27.23;;;13.00;81.80;;;;;;4956721;29;20186;-84
2021/03/25 09:34:11;;;;;;;44.63;25.85;;;13.20;81.40;;;;;;4953786;29;20110;-84
2021/03/25 09:36:46;;;;;;;36.28;22.65;;;13.40;80.60;;;;;;4947688;29;20484;-84
2021/03/25 09:39:17;;;;;;;42.45;23.67;;;13.50;78.60;;;;;;4947464;28;20061;-84
2021/03/25 09:41:43;;;;;;;42.60;24.90;;;13.70;78.20;;;;;;4947040;28;20036;-84
2021/03/25 09:44:08;;;;;;;40.13;23.27;;;13.90;77.90;;;;;;4942496;29;20123;-86
2021/03/25 09:46:41;;;;;;;35.38;22.48;;;14.10;77.30;;;;;;4953859;28;20070;-85
2021/03/25 09:49:31;;;;;;;33.78;20.95;;;14.10;75.90;;;;;;4964414;28;20031;-85
2021/03/25 09:52:06;;;;;;;36.72;20.83;;;14.20;75.10;;;;;;4942186;28;20063;-85
2021/03/25 09:54:33;;;;;;;33.28;20.25;;;14.10;73.20;;;;;;4956811;29;20027;-85
2021/03/25 09:57:34;;;;;;;32.25;18.23;;;14.10;74.00;;;;;;4955821;29;20031;-86
2021/03/25 10:00:06;;;;;;;29.63;17.15;;;14.10;73.20;;;;;;4941651;28;20538;-84
2021/03/25 10:02:41;;;;;;;31.33;19.10;;;14.00;73.50;;;;;;4948064;29;20035;-85
2021/03/25 10:05:24;;;;;;;30.90;19.83;;;14.10;73.40;;;;;;4953072;29;20042;-85
2021/03/25 10:07:53;;;;;;;27.88;16.33;;;14.00;73.00;;;;;;4955804;28;20032;-85
2021/03/25 10:10:33;;;;;;;23.40;15.25;;;13.90;72.70;;;;;;4957831;29;20085;-84
2021/03/25 10:13:01;;;;;;;29.85;17.95;;;14.00;72.80;;;;;;4944697;28;20062;-84
2021/03/25 10:18:15;;;;;;;30.73;18.75;;;14.10;72.90;;;;;;4958142;29;20067;-84
2021/03/25 10:21:00;;;;;;;28.90;17.85;;;14.20;73.60;;;;;;4950038;28;20162;-85
2021/03/25 10:23:50;;;;;;;31.08;18.85;;;14.40;73.60;;;;;;4960314;28;20059;-85
2021/03/25 10:26:30;;;;;;;29.17;17.90;;;14.50;72.90;;;;;;4971417;28;20026;-84
2021/03/25 10:29:06;;;;;;;25.00;17.17;;;14.50;72.60;;;;;;4939255;28;20051;-84
2021/03/25 10:31:38;;;;;;;28.75;19.63;;;14.50;72.70;;;;;;4958444;28;20054;-84
2021/03/25 10:34:07;;;;;;;28.23;18.87;;;14.60;72.70;;;;;;4956463;28;20027;-84
2021/03/25 10:36:56;;;;;;;31.70;20.08;;;14.60;72.90;;;;;;4969417;28;20051;-85
2021/03/25 10:39:35;;;;;;;25.33;16.45;;;14.60;72.90;;;;;;4942788;29;20031;-84
2021/03/25 10:42:27;;;;;;;20.48;15.50;;;14.70;72.30;;;;;;4940032;29;20030;-84
2021/03/25 10:44:56;;;;;;;20.57;14.97;;;14.50;71.70;;;;;;4953649;29;20031;-84
2021/03/25 10:47:30;;;;;;;22.20;15.32;;;14.50;71.80;;;;;;4936128;29;20024;-84
2021/03/25 10:49:59;;;;;;;20.40;14.90;;;14.50;72.10;;;;;;4952159;28;20023;-84
2021/03/25 10:52:24;;;;;;;19.15;14.35;;;14.50;72.30;;;;;;4945912;29;20020;-84
2021/03/25 10:54:53;;;;;;;16.83;12.18;;;14.50;71.90;;;;;;4935860;29;20134;-84
2021/03/25 10:57:23;;;;;;;24.13;15.48;;;14.40;72.30;;;;;;4938216;29;20039;-84
2021/03/25 11:00:01;;;;;;;23.45;15.82;;;14.40;72.30;;;;;;4954249;28;20089;-84
2021/03/25 11:02:29;;;;;;;24.05;16.75;;;14.20;73.10;;;;;;4940710;29;20039;-84
2021/03/25 11:05:14;;;;;;;23.10;15.07;;;13.90;74.00;;;;;;4949620;28;20047;-85
2021/03/25 11:07:42;;;;;;;22.20;14.43;;;13.80;74.80;;;;;;4937511;29;20090;-85
2021/03/25 11:10:25;;;;;;;19.38;14.05;;;13.70;75.60;;;;;;4938420;29;20032;-83
2021/03/25 11:13:17;;;;;;;;;;;13.70;75.30;;;;;;4953389;29;20111;-84
2021/03/25 11:15:54;;;;;;;18.55;12.20;;;13.50;76.10;;;;;;4952077;29;19911;-84
2021/03/25 11:18:24;;;;;;;20.35;12.80;;;13.40;76.80;;;;;;4948106;29;20051;-84
2021/03/25 11:20:51;;;;;;;17.77;12.20;;;13.40;76.80;;;;;;4939492;29;20046;-84
2021/03/25 11:23:20;;;;;;;19.98;13.27;;;13.40;77.00;;;;;;4943776;29;20492;-85
2021/03/25 11:25:47;;;;;;;19.75;13.02;;;13.40;77.30;;;;;;4940742;29;20392;-85
2021/03/25 11:28:15;;;;;;;19.02;12.82;;;13.20;77.20;;;;;;4955688;29;20037;-85
2021/03/25 11:30:45;;;;;;;20.48;13.00;;;13.10;77.90;;;;;;4954702;29;20027;-85
2021/03/25 11:33:38;;;;;;;23.50;14.98;;;13.00;78.30;;;;;;4951927;28;20259;-85
2021/03/25 11:36:06;;;;;;;24.38;14.88;;;12.80;79.00;;;;;;4954589;29;20027;-85
2021/03/25 11:38:36;;;;;;;22.83;15.35;;;12.70;79.30;;;;;;4940085;29;20039;-85
2021/03/25 11:41:31;;;;;;;21.42;15.23;;;12.70;80.00;;;;;;4954090;28;20031;-85
2021/03/25 11:44:00;;;;;;;27.20;17.23;;;12.70;79.70;;;;;;4939433;29;20379;-84
2021/03/25 11:46:40;;;;;;;25.92;17.30;;;12.70;79.80;;;;;;4935144;29;20118;-85
2021/03/25 11:49:10;;;;;;;25.52;16.40;;;12.60;80.30;;;;;;4950410;28;20028;-86
2021/03/25 11:51:51;;;;;;;30.67;18.80;;;12.60;80.40;;;;;;4942160;28;20101;-85
2021/03/25 11:54:27;;;;;;;28.80;18.92;;;12.70;80.70;;;;;;4949196;28;20135;-85
2021/03/25 11:56:58;;;;;;;27.48;18.20;;;12.80;80.80;;;;;;4949653;28;20543;-85
2021/03/25 11:59:27;;;;;;;24.10;17.55;;;12.90;80.30;;;;;;4937587;28;20723;-85
2021/03/25 12:02:08;;;;;;;27.90;18.52;;;12.90;80.00;;;;;;4954065;28;20031;-85
2021/03/25 12:04:35;;;;;;;25.50;18.90;;;12.80;79.80;;;;;;4954566;28;20082;-85
2021/03/25 12:07:02;;;;;;;26.73;19.33;;;12.60;80.40;;;;;;4953843;28;20472;-85
2021/03/25 12:09:28;;;;;;;29.17;20.25;;;12.50;80.90;;;;;;4954246;28;20526;-85
2021/03/25 12:11:54;;;;;;;26.23;19.58;;;12.40;81.50;;;;;;4955143;28;20023;-86
2021/03/25 12:14:23;;;;;;;27.92;19.65;;;12.40;82.00;;;;;;4956391;29;20059;-86
2021/03/25 12:16:54;;;;;;;30.90;21.40;;;12.30;82.20;;;;;;4958166;28;20031;-86
2021/03/25 12:19:20;;;;;;;31.38;21.50;;;12.20;82.60;;;;;;4951636;28;20093;-85
2021/03/25 12:21:46;;;;;;;29.50;20.55;;;12.10;83.10;;;;;;4948806;28;20435;-86
2021/03/25 12:24:12;;;;;;;25.90;18.90;;;12.00;83.20;;;;;;4941406;29;20032;-86
2021/03/25 12:26:38;;;;;;;27.95;19.95;;;12.00;83.60;;;;;;4957005;29;20043;-87
2021/03/25 12:29:04;;;;;;;27.17;20.67;;;12.00;83.60;;;;;;4963046;28;20038;-86
2021/03/25 12:31:32;;;;;;;31.15;21.05;;;12.00;83.80;;;;;;4947219;29;20023;-86
2021/03/25 12:33:58;;;;;;;29.92;19.63;;;12.00;84.00;;;;;;4921133;28;20040;-87
2021/03/25 12:36:23;;;;;;;27.63;20.58;;;12.00;83.90;;;;;;4944276;29;20023;-86
2021/03/25 12:38:49;;;;;;;32.55;23.15;;;11.90;84.70;;;;;;4965494;28;20053;-85
2021/03/25 12:41:24;;;;;;;33.10;23.13;;;11.70;86.20;;;;;;4965250;28;20492;-86
2021/03/25 12:43:50;;;;;;;34.65;21.58;;;11.40;87.40;;;;;;4944625;28;20062;-87
2021/03/25 12:46:15;;;;;;;35.42;21.80;;;11.30;87.90;;;;;;4935310;29;20435;-87
2021/03/25 12:48:41;;;;;;;34.30;22.08;;;11.20;88.50;;;;;;4949627;29;20041;-86
2021/03/25 12:51:12;;;;;;;34.47;21.80;;;11.20;89.80;;;;;;4949303;28;20023;-86
2021/03/25 12:53:37;;;;;;;35.20;21.73;;;11.30;89.30;;;;;;4944582;28;20038;-86
2021/03/25 12:56:03;;;;;;;33.90;21.67;;;11.50;89.20;;;;;;4938255;28;20072;-87
2021/03/25 12:58:33;;;;;;;34.45;22.05;;;11.70;88.70;;;;;;4948553;28;20057;-87
2021/03/25 13:01:03;;;;;;;40.58;23.02;;;11.80;88.40;;;;;;4948123;29;20440;-87
2021/03/25 13:03:28;;;;;;;36.13;23.48;;;12.00;88.00;;;;;;4955795;28;20086;-86
2021/03/25 13:05:54;;;;;;;31.48;19.90;;;12.00;87.60;;;;;;4945642;29;20055;-86
2021/03/25 13:08:19;;;;;;;36.75;23.73;;;12.00;87.40;;;;;;4940371;29;20082;-87
2021/03/25 13:10:45;;;;;;;39.70;25.50;;;12.10;87.50;;;;;;4944800;28;20028;-86
2021/03/25 13:13:11;;;;;;;37.20;24.75;;;12.30;87.00;;;;;;4931808;29;20028;-85